Emma, Illinois
Current Conditions -  °F | °C
As of 6:55 AM on Saturday 20 Dec 2014 (Local Time) from KCUL Reporting Station
Overcast Overcast  
Wind Chill: 34°   Ceiling: 5500
Heat Index: 34°   Visibility: 10mi
Dew Point: 30°   Wind: 3mph
Humidity: 87%   Direction: 80°E
Pressure: 30.3"   Gusts: NA
Location:  37.97°N, 88.12°W
Report Text: KCUL 201255Z AUTO 08003KT 10SM OVC055 01/M01 A3030 RMK AO2 T00101010
Loading
Personal Weather Stations






























Interactive Weather Map New forecast layout! Learn more

10-Day Weather Forecast

Advertisements
Track Severe Weather on mobile